Terminal Aerodrome Forecast
Issued by NWS

Home | Current Version | Previous Version | Graphics & Text | Print | Product List | Glossary On
Versions: 1 2 3 4 5 6 7 8 9 10 11 12 13 14 15 16 17 18 19 20 21 22 23 24 25 26 27 28 29 30 31 32 33 34 35 36 37 38
000
FTUS43 KLOT 251951 AAA
TAFORD
TAF AMD
KORD 251951Z 2520/2624 22014G21KT P6SM SCT030 BKN050
     FM260200 20010KT P6SM SCT250
     FM261100 19012KT 5SM BR VCSH SCT020 BKN030 BKN250
     FM261500 19011KT 6SM -SHRA SCT030 BKN050 BKN120
      TEMPO 2616/2619 -TSRA BKN035CB BKN120=

USA.gov is the U.S. government's official web portal to all federal, state and local government web resources and services.